createdAt,value
2023-01-11T00:04:09.397Z,30.30
2023-01-11T00:09:16.133Z,27.50
2023-01-11T00:14:19.925Z,22.27
2023-01-11T00:19:23.292Z,33.60
2023-01-11T00:24:28.056Z,23.80
2023-01-11T00:29:31.487Z,29.37
2023-01-11T00:34:34.865Z,27.77
2023-01-11T00:39:39.755Z,33.60
2023-01-11T00:45:00.505Z,24.97
2023-01-11T00:50:05.930Z,32.43
2023-01-11T00:55:11.185Z,29.53
2023-01-11T01:00:15.085Z,27.93
2023-01-11T01:05:18.822Z,29.70
2023-01-11T01:10:23.721Z,28.57
2023-01-11T01:15:27.400Z,26.27
2023-01-11T01:20:30.816Z,33.07
2023-01-11T01:25:37.838Z,27.23
2023-01-11T01:30:41.378Z,27.43
2023-01-11T01:35:44.820Z,27.97
2023-01-11T01:40:50.267Z,29.90
2023-01-11T01:45:56.238Z,26.97
2023-01-11T01:51:01.040Z,31.53
2023-01-11T01:56:10.754Z,30.83
2023-01-11T02:01:32.863Z,34.77
2023-01-11T02:06:36.884Z,31.17
2023-01-11T02:11:43.564Z,33.20
2023-01-11T02:16:47.355Z,31.83
2023-01-11T02:22:07.927Z,37.57
2023-01-11T02:27:35.203Z,36.30
2023-01-11T02:32:53.889Z,45.27
2023-01-11T02:38:03.173Z,31.57
2023-01-11T02:43:32.308Z,43.43
2023-01-11T02:48:46.025Z,42.70
2023-01-11T02:53:55.151Z,43.73
2023-01-11T02:59:01.088Z,38.63
2023-01-11T03:04:06.404Z,30.90
2023-01-11T03:09:20.536Z,34.33
2023-01-11T03:14:30.393Z,44.03
2023-01-11T03:19:41.629Z,32.47
2023-01-11T03:24:49.517Z,40.50
2023-01-11T03:29:58.855Z,58.80
2023-01-11T03:35:17.032Z,40.37
2023-01-11T03:40:25.486Z,41.90
2023-01-11T03:45:31.839Z,42.07
2023-01-11T03:50:37.007Z,35.60
2023-01-11T03:55:43.475Z,49.40
2023-01-11T04:00:47.862Z,43.00
2023-01-11T04:05:58.036Z,42.00
2023-01-11T04:11:01.497Z,43.57
2023-01-11T04:16:04.988Z,48.83
2023-01-11T04:21:10.148Z,43.67
2023-01-11T04:26:13.780Z,40.87
2023-01-11T04:31:17.173Z,46.07
2023-01-11T04:36:23.164Z,35.33
2023-01-11T04:41:43.823Z,46.30
2023-01-11T04:46:47.250Z,37.93
2023-01-11T04:51:52.067Z,40.60
2023-01-11T04:56:55.501Z,33.97
2023-01-11T05:01:59.030Z,40.73
2023-01-11T05:07:03.870Z,37.17
2023-01-11T05:12:07.644Z,56.67
2023-01-11T05:17:15.176Z,37.43
2023-01-11T05:22:19.959Z,42.00
2023-01-11T05:27:23.718Z,42.37
2023-01-11T05:32:27.255Z,33.90
2023-01-11T05:37:32.805Z,41.60
2023-01-11T05:42:36.154Z,39.67
2023-01-11T05:47:39.636Z,37.80
2023-01-11T05:52:44.664Z,32.17
2023-01-11T05:57:48.058Z,32.73
2023-01-11T06:02:51.577Z,25.53
2023-01-11T06:07:57.164Z,30.73
2023-01-11T06:13:14.380Z,28.13
2023-01-11T06:18:18.133Z,33.80
2023-01-11T06:23:23.909Z,38.23
2023-01-11T06:28:27.206Z,39.97
2023-01-11T06:33:31.292Z,31.17
2023-01-11T06:38:36.913Z,32.60
2023-01-11T06:43:42.332Z,27.30
2023-01-11T06:48:46.393Z,36.10
2023-01-11T06:53:51.355Z,23.67
2023-01-11T06:58:55.071Z,29.23
2023-01-11T07:03:58.548Z,33.47
2023-01-11T07:09:03.303Z,32.30
2023-01-11T07:14:07.319Z,30.73
2023-01-11T07:19:11.010Z,25.83
2023-01-11T07:24:15.876Z,30.23
2023-01-11T07:29:20.073Z,34.60
2023-01-11T07:34:24.021Z,33.40
2023-01-11T07:39:42.124Z,38.90
2023-01-11T07:44:46.463Z,32.50
2023-01-11T07:49:49.840Z,38.40
2023-01-11T07:54:54.742Z,36.57
2023-01-11T07:59:58.097Z,42.50
2023-01-11T08:05:03.183Z,36.93
2023-01-11T08:10:10.391Z,40.30
2023-01-11T08:15:14.446Z,33.20
2023-01-11T08:20:18.209Z,30.87
2023-01-11T08:25:23.434Z,32.63
2023-01-11T08:30:26.808Z,29.60
2023-01-11T08:35:30.986Z,37.73
2023-01-11T08:40:36.199Z,40.93
2023-01-11T08:45:39.571Z,35.83
2023-01-11T08:50:45.026Z,38.50
2023-01-11T08:55:51.308Z,26.43
2023-01-11T09:00:54.657Z,30.17
2023-01-11T09:05:58.299Z,25.53
2023-01-11T09:11:23.343Z,38.10
2023-01-11T09:16:26.788Z,33.23
2023-01-11T09:21:31.052Z,29.57
2023-01-11T09:26:35.978Z,30.07
2023-01-11T09:31:40.128Z,38.90
2023-01-11T09:36:44.791Z,31.23
2023-01-11T09:42:24.556Z,42.73
2023-01-11T09:47:38.497Z,38.80
2023-01-11T09:52:44.612Z,34.37
2023-01-11T09:58:03.127Z,29.03
2023-01-11T10:03:29.101Z,38.30
2023-01-11T10:18:23.319Z,32.63
2023-01-11T10:19:57.996Z,40.90
2023-01-11T10:25:11.632Z,31.70
2023-01-11T10:30:55.765Z,33.87
2023-01-11T10:36:14.848Z,35.47
2023-01-11T10:41:26.487Z,38.00
2023-01-11T10:46:33.358Z,35.97
2023-01-11T10:51:44.183Z,34.27
2023-01-11T10:57:02.393Z,47.27
2023-01-11T11:02:22.369Z,37.13
2023-01-11T11:07:34.458Z,38.33
2023-01-11T11:12:40.064Z,37.03
2023-01-11T11:17:50.372Z,28.00
2023-01-11T11:22:56.585Z,34.07
2023-01-11T11:28:04.141Z,28.73
2023-01-11T11:33:17.067Z,33.80
2023-01-11T11:38:24.285Z,34.27
2023-01-11T11:43:28.869Z,34.30
2023-01-11T11:48:35.657Z,35.57
2023-01-11T11:53:43.723Z,34.07
2023-01-11T11:58:48.022Z,29.53
2023-01-11T12:03:55.513Z,38.47
2023-01-11T12:09:02.134Z,32.10
2023-01-11T12:14:18.181Z,34.83
2023-01-11T12:19:34.683Z,28.63
2023-01-11T12:24:38.258Z,34.50
2023-01-11T12:29:54.209Z,31.67
2023-01-11T12:35:14.822Z,30.50
2023-01-11T12:40:25.592Z,28.07
2023-01-11T12:45:41.590Z,31.80
2023-01-11T12:50:59.478Z,29.33
2023-01-11T12:56:25.011Z,26.57
2023-01-11T13:01:43.555Z,32.83
2023-01-11T13:07:00.148Z,33.43
2023-01-11T13:12:11.860Z,28.93
2023-01-11T13:17:30.091Z,34.20
2023-01-11T13:22:39.428Z,33.63
2023-01-11T13:27:44.705Z,33.77
2023-01-11T13:32:53.887Z,34.33
2023-01-11T13:38:05.966Z,40.80
2023-01-11T13:43:16.110Z,40.23
2023-01-11T13:48:26.680Z,24.33
2023-01-11T13:53:38.722Z,22.07
2023-01-11T13:58:53.193Z,34.30
2023-01-11T14:04:01.415Z,24.97
2023-01-11T14:09:23.250Z,25.67
2023-01-11T14:14:56.108Z,28.43
2023-01-11T14:20:13.099Z,25.27
2023-01-11T14:25:23.397Z,24.73
2023-01-11T14:30:50.401Z,22.73
2023-01-11T14:36:34.214Z,20.20
2023-01-11T14:42:30.433Z,24.73
2023-01-11T14:48:06.380Z,19.67
2023-01-11T14:53:13.024Z,21.70
2023-01-11T14:58:25.123Z,17.90
2023-01-11T15:03:42.267Z,14.60
2023-01-11T15:08:48.625Z,13.43
2023-01-11T15:13:57.565Z,12.87
2023-01-11T15:19:03.641Z,20.73
2023-01-11T15:24:07.887Z,16.50
2023-01-11T15:29:22.730Z,17.47
2023-01-11T15:34:28.380Z,14.50
2023-01-11T15:39:40.486Z,20.67
2023-01-11T15:45:02.879Z,18.20
2023-01-11T15:50:51.313Z,13.87
2023-01-11T15:56:37.339Z,13.63
2023-01-11T16:01:55.307Z,10.27
2023-01-11T16:07:04.905Z,13.90
2023-01-11T16:12:28.780Z,13.03
2023-01-11T16:17:34.013Z,15.80
2023-01-11T16:22:37.939Z,10.80
2023-01-11T16:27:41.430Z,16.10
2023-01-11T16:32:46.551Z,16.67
2023-01-11T16:37:52.709Z,14.53
2023-01-11T16:43:00.064Z,16.00
2023-01-11T16:48:07.236Z,16.03
2023-01-11T16:53:14.241Z,16.77
2023-01-11T16:58:25.688Z,15.73
2023-01-11T17:03:32.230Z,13.63
2023-01-11T17:08:37.437Z,21.30
2023-01-11T17:14:25.234Z,25.67
2023-01-11T17:19:32.096Z,24.33
2023-01-11T17:24:41.021Z,23.50
2023-01-11T17:29:45.671Z,27.83
2023-01-11T17:34:52.508Z,26.73
2023-01-11T17:39:57.005Z,25.57
2023-01-11T17:45:15.667Z,23.10
2023-01-11T17:50:30.088Z,22.07
2023-01-11T17:55:34.531Z,27.40
2023-01-11T18:00:38.722Z,23.90
2023-01-11T18:05:44.310Z,27.03
2023-01-11T18:10:54.201Z,22.43
2023-01-11T18:15:58.075Z,24.67
2023-01-11T18:21:03.067Z,23.50
2023-01-11T18:26:27.665Z,28.00
2023-01-11T18:31:31.412Z,28.93
2023-01-11T18:36:37.406Z,27.30
2023-01-11T18:41:59.700Z,30.90
2023-01-11T18:47:04.215Z,33.00
2023-01-11T18:52:09.161Z,29.57
2023-01-11T18:57:12.755Z,35.17
2023-01-11T19:02:24.108Z,23.47
2023-01-11T19:07:29.176Z,27.57
2023-01-11T19:12:32.766Z,29.17
2023-01-11T19:17:36.362Z,29.77
2023-01-11T19:22:42.060Z,23.90
2023-01-11T19:27:45.832Z,34.03
2023-01-11T19:32:52.446Z,32.10
2023-01-11T19:37:58.467Z,21.20
2023-01-11T19:43:03.049Z,27.17
2023-01-11T19:48:07.116Z,26.90
2023-01-11T19:53:12.036Z,23.03
2023-01-11T19:58:16.155Z,20.93
2023-01-11T20:03:19.769Z,27.80
2023-01-11T20:08:24.576Z,30.83
2023-01-11T20:13:27.961Z,41.67
2023-01-11T20:18:31.816Z,35.13
2023-01-11T20:23:36.952Z,36.93
2023-01-11T20:28:40.591Z,35.50
2023-01-11T20:33:44.140Z,29.27
2023-01-11T20:38:48.992Z,29.10
2023-01-11T20:43:52.452Z,56.83
2023-01-11T20:48:55.881Z,36.00
2023-01-11T20:54:01.398Z,33.03
2023-01-11T20:59:04.818Z,32.43
2023-01-11T21:04:10.091Z,30.27
2023-01-11T21:09:17.806Z,41.40
2023-01-11T21:14:21.517Z,33.57
2023-01-11T21:19:27.760Z,35.40
2023-01-11T21:24:32.755Z,32.83
2023-01-11T21:29:36.192Z,24.27
2023-01-11T21:34:39.591Z,31.77
2023-01-11T21:39:44.667Z,29.90
2023-01-11T21:44:48.095Z,28.93
2023-01-11T21:49:51.479Z,31.03
2023-01-11T21:54:56.292Z,27.90
2023-01-11T21:59:59.774Z,39.07
2023-01-11T22:05:03.699Z,28.17
2023-01-11T22:10:09.506Z,28.00
2023-01-11T22:15:13.095Z,24.53
2023-01-11T22:20:17.701Z,30.73
2023-01-11T22:25:22.447Z,30.87
2023-01-11T22:30:25.788Z,24.87
2023-01-11T22:35:29.556Z,41.27
2023-01-11T22:40:34.360Z,38.13
2023-01-11T22:45:37.795Z,27.23
2023-01-11T22:50:41.420Z,34.23
2023-01-11T22:55:46.736Z,35.27
2023-01-11T23:00:50.888Z,47.00
2023-01-11T23:05:54.322Z,44.03
2023-01-11T23:11:02.967Z,37.60
2023-01-11T23:16:07.135Z,42.37
2023-01-11T23:21:10.688Z,40.97
2023-01-11T23:26:18.097Z,30.53
2023-01-11T23:31:23.761Z,34.03
2023-01-11T23:36:30.111Z,38.23
2023-01-11T23:41:52.660Z,37.67
2023-01-11T23:47:27.808Z,33.17
2023-01-11T23:52:33.607Z,29.57
2023-01-11T23:57:58.385Z,32.67
